createdAt,value
2023-01-11T00:00:47.506Z,12.50
2023-01-11T00:03:20.252Z,12.30
2023-01-11T00:05:50.413Z,12.30
2023-01-11T00:08:22.155Z,12.30
2023-01-11T00:10:52.278Z,12.30
2023-01-11T00:13:22.607Z,12.30
2023-01-11T00:15:52.863Z,12.40
2023-01-11T00:18:25.665Z,12.40
2023-01-11T00:20:55.749Z,12.30
2023-01-11T00:23:25.760Z,12.30
2023-01-11T00:25:55.861Z,12.30
2023-01-11T00:28:25.982Z,12.20
2023-01-11T00:30:56.258Z,12.20
2023-01-11T00:33:28.962Z,12.30
2023-01-11T00:35:59.127Z,12.30
2023-01-11T00:38:41.808Z,12.40
2023-01-11T00:41:24.564Z,12.40
2023-01-11T00:44:07.465Z,12.70
2023-01-11T00:46:50.193Z,12.50
2023-01-11T00:49:22.893Z,12.50
2023-01-11T00:51:53.226Z,12.50
2023-01-11T00:54:23.431Z,12.50
2023-01-11T00:56:53.576Z,12.60
2023-01-11T00:59:23.777Z,12.80
2023-01-11T01:01:53.963Z,12.60
2023-01-11T01:04:26.686Z,12.60
2023-01-11T01:06:57.010Z,12.70
2023-01-11T01:09:27.115Z,12.70
2023-01-11T01:11:57.490Z,12.80
2023-01-11T01:14:29.026Z,12.90
2023-01-11T01:17:01.721Z,12.90
2023-01-11T01:19:35.282Z,13.00
2023-01-11T01:22:05.937Z,12.90
2023-01-11T01:24:36.161Z,13.00
2023-01-11T01:27:06.452Z,12.90
2023-01-11T01:29:36.617Z,12.80
2023-01-11T01:32:06.932Z,12.90
2023-01-11T01:34:40.221Z,13.00
2023-01-11T01:37:11.355Z,13.00
2023-01-11T01:39:41.915Z,12.90
2023-01-11T01:42:16.974Z,12.90
2023-01-11T01:45:00.866Z,13.00
2023-01-11T01:47:45.440Z,12.90
2023-01-11T01:50:23.362Z,12.80
2023-01-11T01:52:58.155Z,12.90
2023-01-11T01:55:36.465Z,12.80
2023-01-11T01:58:10.006Z,12.70
2023-01-11T02:00:42.415Z,12.70
2023-01-11T02:03:14.138Z,12.80
2023-01-11T02:05:47.135Z,12.70
2023-01-11T02:08:25.494Z,12.70
2023-01-11T02:10:56.559Z,12.90
2023-01-11T02:13:26.442Z,13.00
2023-01-11T02:16:10.266Z,12.90
2023-01-11T02:18:42.316Z,12.90
2023-01-11T02:21:25.284Z,12.80
2023-01-11T02:24:27.924Z,12.70
2023-01-11T02:27:19.642Z,12.70
2023-01-11T02:30:13.853Z,12.70
2023-01-11T02:32:55.824Z,12.80
2023-01-11T02:35:36.542Z,12.90
2023-01-11T02:38:12.343Z,12.90
2023-01-11T02:40:54.040Z,12.90
2023-01-11T02:43:42.293Z,12.90
2023-01-11T02:46:20.965Z,12.90
2023-01-11T02:48:58.693Z,12.90
2023-01-11T02:51:35.503Z,13.00
2023-01-11T02:54:10.570Z,12.90
2023-01-11T02:56:43.444Z,12.80
2023-01-11T02:59:18.671Z,12.80
2023-01-11T03:01:55.874Z,12.80
2023-01-11T03:04:28.729Z,12.80
2023-01-11T03:07:15.856Z,12.70
2023-01-11T03:09:59.459Z,12.60
2023-01-11T03:12:52.662Z,12.60
2023-01-11T03:15:38.446Z,12.50
2023-01-11T03:18:27.186Z,12.60
2023-01-11T03:21:05.106Z,12.60
2023-01-11T03:23:42.868Z,12.70
2023-01-11T03:26:21.798Z,12.90
2023-01-11T03:29:02.882Z,12.90
2023-01-11T03:31:37.272Z,12.60
2023-01-11T03:34:19.689Z,12.80
2023-01-11T03:36:53.859Z,12.80
2023-01-11T03:39:29.447Z,12.70
2023-01-11T03:42:02.523Z,12.80
2023-01-11T03:44:36.216Z,12.80
2023-01-11T03:47:10.502Z,12.90
2023-01-11T03:49:48.632Z,12.90
2023-01-11T03:52:20.815Z,12.90
2023-01-11T03:54:51.833Z,12.80
2023-01-11T03:57:23.159Z,12.80
2023-01-11T03:59:53.971Z,12.90
2023-01-11T04:02:27.602Z,12.80
2023-01-11T04:05:00.397Z,12.80
2023-01-11T04:07:30.510Z,12.80
2023-01-11T04:10:00.881Z,12.90
2023-01-11T04:12:31.142Z,12.90
2023-01-11T04:15:03.171Z,12.80
2023-01-11T04:17:33.230Z,12.90
2023-01-11T04:20:06.013Z,13.00
2023-01-11T04:22:36.051Z,12.80
2023-01-11T04:25:06.559Z,12.80
2023-01-11T04:27:36.632Z,12.80
2023-01-11T04:30:07.542Z,12.80
2023-01-11T04:32:37.911Z,13.00
2023-01-11T04:35:11.791Z,13.00
2023-01-11T04:37:42.085Z,13.10
2023-01-11T04:40:16.487Z,13.00
2023-01-11T04:42:46.321Z,13.10
2023-01-11T04:45:16.603Z,13.10
2023-01-11T04:47:46.621Z,13.00
2023-01-11T04:50:19.710Z,13.10
2023-01-11T04:52:49.763Z,13.00
2023-01-11T04:55:20.127Z,13.10
2023-01-11T04:57:50.519Z,13.20
2023-01-11T05:00:21.606Z,13.30
2023-01-11T05:02:51.314Z,13.30
2023-01-11T05:05:23.989Z,13.30
2023-01-11T05:07:54.040Z,13.30
2023-01-11T05:10:24.128Z,13.40
2023-01-11T05:12:54.565Z,13.30
2023-01-11T05:15:24.667Z,13.40
2023-01-11T05:20:27.629Z,13.20
2023-01-11T05:22:57.663Z,13.20
2023-01-11T05:25:27.729Z,13.30
2023-01-11T05:27:57.813Z,13.40
2023-01-11T05:30:28.035Z,13.50
2023-01-11T05:32:58.539Z,13.40
2023-01-11T05:35:31.141Z,13.40
2023-01-11T05:38:01.206Z,13.50
2023-01-11T05:40:31.423Z,13.50
2023-01-11T05:43:01.453Z,13.00
2023-01-11T05:45:33.035Z,13.30
2023-01-11T05:48:03.141Z,13.40
2023-01-11T05:50:35.896Z,13.50
2023-01-11T05:53:07.231Z,13.60
2023-01-11T05:55:37.573Z,13.60
2023-01-11T05:58:09.500Z,13.50
2023-01-11T06:00:39.638Z,13.30
2023-01-11T06:03:09.748Z,13.40
2023-01-11T06:05:42.477Z,13.30
2023-01-11T06:08:12.876Z,13.30
2023-01-11T06:10:43.526Z,13.40
2023-01-11T06:13:25.910Z,13.40
2023-01-11T06:15:56.163Z,13.40
2023-01-11T06:18:26.212Z,13.30
2023-01-11T06:20:59.767Z,13.30
2023-01-11T06:23:32.752Z,13.50
2023-01-11T06:26:04.671Z,13.40
2023-01-11T06:28:35.015Z,13.20
2023-01-11T06:31:05.708Z,13.30
2023-01-11T06:33:36.353Z,13.20
2023-01-11T06:36:11.773Z,13.20
2023-01-11T06:38:42.060Z,13.30
2023-01-11T06:41:12.931Z,13.30
2023-01-11T06:43:43.768Z,13.20
2023-01-11T06:46:15.431Z,13.10
2023-01-11T06:48:46.278Z,13.10
2023-01-11T06:51:19.386Z,13.00
2023-01-11T06:53:49.472Z,12.90
2023-01-11T06:56:20.546Z,12.90
2023-01-11T06:58:51.020Z,12.80
2023-01-11T07:01:21.879Z,12.70
2023-01-11T07:03:52.037Z,12.50
2023-01-11T07:06:24.993Z,12.60
2023-01-11T07:08:55.189Z,12.60
2023-01-11T07:11:25.296Z,12.60
2023-01-11T07:13:55.320Z,12.70
2023-01-11T07:16:25.466Z,12.60
2023-01-11T07:18:55.590Z,12.60
2023-01-11T07:21:28.338Z,11.80
2023-01-11T07:23:58.364Z,12.20
2023-01-11T07:26:28.524Z,12.20
2023-01-11T07:28:58.706Z,12.30
2023-01-11T07:31:28.785Z,13.40
2023-01-11T07:36:42.588Z,12.20
2023-01-11T07:39:12.678Z,12.20
2023-01-11T07:41:55.244Z,12.30
2023-01-11T07:44:25.304Z,12.20
2023-01-11T07:49:25.852Z,12.00
2023-01-11T07:51:58.593Z,12.00
2023-01-11T07:54:28.797Z,12.00
2023-01-11T07:56:59.236Z,12.00
2023-01-11T07:59:30.668Z,12.10
2023-01-11T08:02:00.796Z,12.10
2023-01-11T08:04:31.095Z,12.00
2023-01-11T08:07:03.758Z,11.90
2023-01-11T08:09:34.710Z,11.80
2023-01-11T08:12:17.206Z,11.80
2023-01-11T08:14:47.252Z,11.80
2023-01-11T08:17:18.900Z,12.00
2023-01-11T08:19:48.950Z,11.90
2023-01-11T08:22:21.693Z,12.10
2023-01-11T08:24:51.857Z,12.10
2023-01-11T08:27:22.144Z,12.00
2023-01-11T08:29:52.310Z,12.00
2023-01-11T08:32:22.527Z,11.80
2023-01-11T08:34:52.753Z,12.00
2023-01-11T08:37:25.509Z,11.50
2023-01-11T08:39:56.792Z,11.90
2023-01-11T08:42:27.135Z,12.00
2023-01-11T08:44:57.332Z,12.20
2023-01-11T08:47:27.420Z,12.00
2023-01-11T08:50:00.804Z,11.90
2023-01-11T08:52:33.849Z,11.90
2023-01-11T08:55:07.722Z,11.90
2023-01-11T08:57:38.632Z,12.00
2023-01-11T09:00:12.774Z,12.30
2023-01-11T09:02:43.031Z,12.40
2023-01-11T09:05:13.608Z,12.20
2023-01-11T09:07:46.339Z,12.20
2023-01-11T09:10:16.441Z,12.40
2023-01-11T09:12:47.205Z,13.10
2023-01-11T09:15:17.248Z,13.60
2023-01-11T09:17:48.966Z,14.30
2023-01-11T09:20:20.191Z,14.70
2023-01-11T09:22:54.544Z,15.10
2023-01-11T09:25:24.770Z,15.70
2023-01-11T09:27:55.558Z,16.30
2023-01-11T09:30:26.174Z,16.40
2023-01-11T09:32:56.399Z,16.60
2023-01-11T09:35:27.213Z,16.40
2023-01-11T09:38:00.110Z,15.40
2023-01-11T09:40:38.722Z,14.40
2023-01-11T09:43:09.451Z,14.00
2023-01-11T09:45:42.447Z,13.80
2023-01-11T09:48:26.832Z,13.70
2023-01-11T09:53:35.164Z,13.00
2023-01-11T09:56:06.539Z,13.00
2023-01-11T09:58:53.859Z,13.80
2023-01-11T10:01:32.924Z,13.00
2023-01-11T10:04:47.562Z,13.20
2023-01-11T10:07:46.108Z,13.00
2023-01-11T10:18:33.076Z,13.00
2023-01-11T10:19:39.806Z,12.90
2023-01-11T10:22:18.995Z,13.20
2023-01-11T10:24:53.187Z,13.40
2023-01-11T10:27:40.688Z,13.50
2023-01-11T10:30:33.740Z,13.50
2023-01-11T10:33:18.435Z,13.60
2023-01-11T10:36:08.642Z,13.40
2023-01-11T10:38:54.755Z,13.40
2023-01-11T10:41:34.189Z,13.50
2023-01-11T10:44:19.376Z,13.50
2023-01-11T10:46:53.561Z,13.50
2023-01-11T10:49:43.937Z,13.60
2023-01-11T10:52:34.110Z,14.00
2023-01-11T10:55:13.540Z,14.00
2023-01-11T10:58:00.370Z,14.10
2023-01-11T11:00:42.607Z,13.70
2023-01-11T11:03:37.162Z,13.60
2023-01-11T11:06:13.075Z,13.90
2023-01-11T11:08:52.026Z,13.80
2023-01-11T11:11:25.735Z,13.90
2023-01-11T11:14:04.471Z,13.60
2023-01-11T11:16:52.104Z,13.70
2023-01-11T11:19:28.155Z,13.70
2023-01-11T11:21:58.229Z,14.10
2023-01-11T11:24:34.650Z,13.80
2023-01-11T11:27:11.158Z,13.60
2023-01-11T11:29:45.539Z,13.50
2023-01-11T11:32:26.104Z,13.70
2023-01-11T11:34:56.633Z,13.60
2023-01-11T11:37:30.316Z,13.50
2023-01-11T11:42:31.205Z,13.50
2023-01-11T11:45:17.729Z,13.60
2023-01-11T11:48:04.087Z,13.60
2023-01-11T11:50:44.639Z,14.00
2023-01-11T11:53:33.337Z,13.90
2023-01-11T11:56:09.904Z,13.90
2023-01-11T11:58:44.863Z,13.50
2023-01-11T12:01:31.649Z,13.50
2023-01-11T12:04:13.575Z,13.80
2023-01-11T12:06:44.018Z,13.70
2023-01-11T12:09:21.846Z,13.90
2023-01-11T12:11:52.295Z,14.00
2023-01-11T12:14:26.909Z,14.00
2023-01-11T12:19:39.415Z,13.60
2023-01-11T12:22:20.514Z,13.70
2023-01-11T12:24:52.065Z,13.50
2023-01-11T12:27:34.421Z,13.20
2023-01-11T12:30:20.040Z,13.20
2023-01-11T12:33:08.662Z,13.30
2023-01-11T12:35:51.005Z,13.30
2023-01-11T12:38:40.424Z,13.30
2023-01-11T12:41:50.418Z,13.30
2023-01-11T12:44:43.723Z,13.30
2023-01-11T12:47:46.713Z,13.50
2023-01-11T12:50:25.060Z,13.50
2023-01-11T12:53:10.070Z,13.40
2023-01-11T12:55:59.799Z,13.30
2023-01-11T12:58:38.089Z,13.20
2023-01-11T13:01:19.342Z,13.30
2023-01-11T13:04:12.205Z,13.20
2023-01-11T13:06:46.335Z,13.20
2023-01-11T13:09:33.564Z,13.40
2023-01-11T13:12:11.294Z,13.40
2023-01-11T13:14:53.736Z,13.50
2023-01-11T13:17:31.409Z,13.70
2023-01-11T13:20:23.145Z,13.70
2023-01-11T13:22:57.075Z,13.60
2023-01-11T13:25:32.599Z,13.50
2023-01-11T13:28:08.726Z,13.50
2023-01-11T13:30:41.360Z,14.60
2023-01-11T13:33:20.224Z,13.30
2023-01-11T13:35:55.768Z,13.30
2023-01-11T13:38:37.459Z,13.30
2023-01-11T13:41:20.591Z,13.20
2023-01-11T13:43:57.486Z,13.10
2023-01-11T13:46:44.365Z,13.30
2023-01-11T13:49:23.257Z,13.50
2023-01-11T13:51:58.779Z,13.60
2023-01-11T13:54:44.317Z,13.70
2023-01-11T13:57:25.939Z,13.60
2023-01-11T14:00:02.432Z,13.30
2023-01-11T14:02:41.587Z,13.40
2023-01-11T14:05:18.403Z,13.20
2023-01-11T14:08:06.900Z,12.80
2023-01-11T14:10:44.158Z,12.80
2023-01-11T14:13:59.414Z,12.70
2023-01-11T14:16:39.134Z,12.80
2023-01-11T14:19:20.237Z,13.00
2023-01-11T14:22:04.004Z,12.90
2023-01-11T14:24:37.573Z,12.90
2023-01-11T14:27:47.020Z,13.10
2023-01-11T14:30:38.467Z,13.00
2023-01-11T14:33:39.328Z,12.80
2023-01-11T14:36:44.273Z,12.30
2023-01-11T14:39:47.028Z,12.60
2023-01-11T14:42:49.947Z,12.80
2023-01-11T14:45:31.859Z,12.70
2023-01-11T14:48:16.773Z,12.70
2023-01-11T14:51:04.585Z,12.80
2023-01-11T14:53:39.591Z,12.80
2023-01-11T14:57:00.153Z,12.80
2023-01-11T14:59:40.126Z,12.70
2023-01-11T15:02:18.241Z,12.70
2023-01-11T15:05:07.969Z,12.80
2023-01-11T15:07:43.870Z,12.00
2023-01-11T15:10:42.044Z,12.60
2023-01-11T15:13:17.878Z,12.50
2023-01-11T15:16:00.726Z,12.30
2023-01-11T15:18:31.365Z,12.30
2023-01-11T15:21:06.668Z,12.30
2023-01-11T15:23:40.825Z,12.30
2023-01-11T15:26:12.504Z,12.30
2023-01-11T15:28:50.608Z,13.40
2023-01-11T15:31:39.851Z,12.20
2023-01-11T15:34:43.444Z,12.20
2023-01-11T15:37:25.754Z,12.50
2023-01-11T15:40:01.716Z,12.30
2023-01-11T15:43:13.126Z,12.10
2023-01-11T15:46:40.256Z,12.20
2023-01-11T15:49:46.811Z,12.20
2023-01-11T15:52:41.759Z,12.70
2023-01-11T15:56:03.246Z,12.00
2023-01-11T15:59:15.182Z,11.90
2023-01-11T16:02:16.860Z,13.70
2023-01-11T16:04:51.137Z,11.70
2023-01-11T16:07:31.241Z,11.80
2023-01-11T16:10:30.964Z,11.70
2023-01-11T16:13:19.018Z,11.80
2023-01-11T16:15:58.854Z,11.90
2023-01-11T16:18:33.162Z,11.90
2023-01-11T16:21:18.124Z,11.70
2023-01-11T16:23:48.578Z,11.80
2023-01-11T16:26:20.857Z,11.50
2023-01-11T16:28:55.882Z,11.60
2023-01-11T16:31:26.753Z,11.70
2023-01-11T16:33:57.040Z,11.50
2023-01-11T16:36:27.330Z,12.00
2023-01-11T16:39:06.548Z,11.50
2023-01-11T16:41:49.782Z,11.50
2023-01-11T16:44:30.623Z,11.50
2023-01-11T16:47:19.486Z,11.40
2023-01-11T16:49:52.693Z,11.30
2023-01-11T16:52:54.369Z,11.20
2023-01-11T16:55:38.639Z,11.30
2023-01-11T16:58:10.343Z,11.40
2023-01-11T17:00:43.457Z,11.50
2023-01-11T17:03:43.962Z,11.50
2023-01-11T17:06:23.744Z,11.40
2023-01-11T17:08:55.096Z,11.50
2023-01-11T17:11:35.495Z,11.30
2023-01-11T17:14:38.229Z,11.40
2023-01-11T17:17:13.876Z,11.50
2023-01-11T17:19:48.849Z,11.20
2023-01-11T17:22:25.179Z,11.30
2023-01-11T17:24:59.731Z,11.30
2023-01-11T17:27:33.527Z,11.20
2023-01-11T17:30:05.306Z,11.30
2023-01-11T17:32:43.980Z,11.50
2023-01-11T17:35:18.990Z,11.40
2023-01-11T17:37:51.301Z,11.30
2023-01-11T17:40:26.550Z,11.10
2023-01-11T17:43:11.900Z,11.20
2023-01-11T17:45:42.427Z,11.30
2023-01-11T17:48:18.695Z,11.30
2023-01-11T17:50:54.664Z,11.40
2023-01-11T17:53:27.220Z,11.10
2023-01-11T17:55:59.190Z,11.20
2023-01-11T17:58:31.972Z,11.20
2023-01-11T18:01:22.391Z,11.90
2023-01-11T18:03:57.319Z,11.20
2023-01-11T18:06:34.565Z,11.30
2023-01-11T18:09:07.793Z,10.90
2023-01-11T18:11:39.802Z,12.00
2023-01-11T18:14:19.756Z,11.40
2023-01-11T18:17:01.562Z,11.50
2023-01-11T18:19:44.012Z,11.30
2023-01-11T18:22:31.477Z,11.30
2023-01-11T18:25:04.377Z,11.50
2023-01-11T18:27:36.130Z,11.60
2023-01-11T18:30:11.529Z,11.40
2023-01-11T18:32:45.300Z,11.50
2023-01-11T18:35:20.996Z,11.40
2023-01-11T18:37:51.138Z,11.60
2023-01-11T18:40:22.318Z,11.40
2023-01-11T18:42:53.323Z,11.50
2023-01-11T18:45:25.070Z,11.50
2023-01-11T18:47:55.539Z,11.70
2023-01-11T18:50:28.295Z,11.40
2023-01-11T18:52:58.404Z,11.10
2023-01-11T18:55:28.604Z,11.70
2023-01-11T18:57:58.671Z,11.40
2023-01-11T19:00:28.955Z,11.50
2023-01-11T19:02:59.224Z,11.30
2023-01-11T19:05:31.996Z,11.50
2023-01-11T19:08:02.392Z,11.40
2023-01-11T19:10:32.578Z,11.40
2023-01-11T19:13:02.700Z,11.40
2023-01-11T19:15:32.866Z,11.40
2023-01-11T19:18:04.531Z,11.50
2023-01-11T19:20:37.274Z,11.50
2023-01-11T19:23:07.482Z,11.50
2023-01-11T19:25:37.603Z,11.50
2023-01-11T19:28:08.527Z,11.70
2023-01-11T19:30:41.379Z,11.40
2023-01-11T19:33:11.491Z,10.60
2023-01-11T19:35:47.733Z,11.20
2023-01-11T19:38:19.676Z,11.00
2023-01-11T19:40:50.791Z,11.00
2023-01-11T19:43:20.603Z,11.00
2023-01-11T19:45:58.389Z,9.60
2023-01-11T19:48:28.465Z,10.80
2023-01-11T19:51:08.597Z,10.80
2023-01-11T19:53:39.389Z,10.80
2023-01-11T19:56:11.636Z,10.80
2023-01-11T19:58:41.741Z,10.20
2023-01-11T20:01:13.647Z,12.60
2023-01-11T20:03:44.463Z,10.70
2023-01-11T20:06:17.445Z,10.70
2023-01-11T20:08:47.544Z,10.70
2023-01-11T20:11:18.623Z,10.40
2023-01-11T20:13:50.806Z,10.50
2023-01-11T20:16:22.419Z,10.80
2023-01-11T20:18:56.892Z,10.70
2023-01-11T20:21:34.135Z,10.70
2023-01-11T20:24:04.701Z,9.90
2023-01-11T20:26:35.315Z,10.70
2023-01-11T20:29:06.516Z,10.60
2023-01-11T20:31:37.882Z,10.20
2023-01-11T20:34:09.955Z,11.20
2023-01-11T20:36:43.062Z,9.90
2023-01-11T20:39:14.021Z,10.30
2023-01-11T20:41:51.224Z,11.40
2023-01-11T20:44:23.956Z,10.30
2023-01-11T20:46:55.301Z,9.80
2023-01-11T20:49:27.384Z,10.00
2023-01-11T20:52:00.225Z,10.50
2023-01-11T20:54:30.510Z,10.40
2023-01-11T20:57:05.835Z,10.70
2023-01-11T20:59:36.062Z,10.80
2023-01-11T21:02:07.787Z,10.70
2023-01-11T21:04:38.173Z,9.40
2023-01-11T21:07:11.015Z,10.40
2023-01-11T21:09:41.210Z,10.40
2023-01-11T21:14:41.519Z,11.00
2023-01-11T21:17:11.553Z,10.50
2023-01-11T21:19:43.033Z,9.90
2023-01-11T21:22:15.737Z,10.30
2023-01-11T21:24:45.824Z,10.70
2023-01-11T21:27:16.023Z,10.30
2023-01-11T21:29:46.111Z,10.80
2023-01-11T21:32:16.462Z,10.10
2023-01-11T21:34:46.477Z,10.00
2023-01-11T21:37:19.961Z,10.00
2023-01-11T21:39:51.405Z,10.10
2023-01-11T21:42:21.831Z,10.10
2023-01-11T21:44:51.818Z,10.00
2023-01-11T21:47:22.380Z,10.00
2023-01-11T21:49:52.439Z,10.10
2023-01-11T21:52:25.162Z,10.10
2023-01-11T21:54:55.255Z,10.10
2023-01-11T21:57:25.307Z,10.10
2023-01-11T21:59:57.832Z,10.20
2023-01-11T22:02:27.952Z,10.20
2023-01-11T22:04:59.565Z,10.30
2023-01-11T22:07:33.220Z,9.10
2023-01-11T22:10:05.443Z,10.30
2023-01-11T22:12:36.995Z,10.20
2023-01-11T22:15:07.229Z,10.30
2023-01-11T22:17:37.400Z,10.30
2023-01-11T22:20:08.614Z,10.60
2023-01-11T22:22:41.276Z,10.30
2023-01-11T22:25:11.959Z,10.50
2023-01-11T22:27:43.739Z,9.90
2023-01-11T22:30:15.046Z,10.40
2023-01-11T22:32:44.842Z,10.20
2023-01-11T22:35:14.881Z,10.30
2023-01-11T22:37:47.772Z,10.10
2023-01-11T22:40:18.250Z,10.20
2023-01-11T22:42:48.907Z,10.40
2023-01-11T22:45:19.223Z,10.30
2023-01-11T22:47:49.787Z,10.40
2023-01-11T22:50:20.062Z,10.30
2023-01-11T22:52:52.952Z,10.20
2023-01-11T22:55:23.051Z,10.10
2023-01-11T22:57:53.136Z,10.50
2023-01-11T23:00:25.717Z,10.30
2023-01-11T23:02:55.842Z,10.70
2023-01-11T23:05:27.080Z,10.30
2023-01-11T23:07:59.550Z,10.70
2023-01-11T23:10:29.659Z,10.70
2023-01-11T23:13:14.833Z,10.70
2023-01-11T23:15:44.857Z,10.70
2023-01-11T23:18:15.190Z,10.60
2023-01-11T23:20:45.283Z,10.40
2023-01-11T23:23:18.000Z,10.40
2023-01-11T23:25:48.056Z,10.30
2023-01-11T23:28:18.146Z,10.30
2023-01-11T23:30:48.159Z,10.40
2023-01-11T23:33:18.200Z,10.40
2023-01-11T23:35:48.213Z,10.70
2023-01-11T23:38:20.883Z,10.90
2023-01-11T23:41:03.060Z,10.50
2023-01-11T23:43:33.219Z,10.70
2023-01-11T23:46:27.145Z,10.50
2023-01-11T23:48:54.579Z,11.00
2023-01-11T23:51:24.583Z,9.70
2023-01-11T23:53:57.251Z,10.50
2023-01-11T23:56:27.383Z,10.50
2023-01-11T23:58:58.366Z,10.60
